sensor_id;sensor_type;location;lat;lon;timestamp;P1;durP1;ratioP1;P2;durP2;ratioP2
52964;SDS011;42923;53.220;6.528;2023-07-29T00:00:41;11.05;;;8.05;;
52964;SDS011;42923;53.220;6.528;2023-07-29T00:03:07;10.38;;;7.90;;
52964;SDS011;42923;53.220;6.528;2023-07-29T00:05:33;11.25;;;8.25;;
52964;SDS011;42923;53.220;6.528;2023-07-29T00:07:59;12.52;;;8.02;;
52964;SDS011;42923;53.220;6.528;2023-07-29T00:10:25;13.25;;;8.55;;
52964;SDS011;42923;53.220;6.528;2023-07-29T00:12:51;13.80;;;8.50;;
52964;SDS011;42923;53.220;6.528;2023-07-29T00:15:17;10.85;;;8.82;;
52964;SDS011;42923;53.220;6.528;2023-07-29T00:17:43;9.90;;;7.97;;
52964;SDS011;42923;53.220;6.528;2023-07-29T00:20:09;11.88;;;8.35;;
52964;SDS011;42923;53.220;6.528;2023-07-29T00:22:35;14.98;;;8.93;;
52964;SDS011;42923;53.220;6.528;2023-07-29T00:25:01;12.80;;;8.18;;
52964;SDS011;42923;53.220;6.528;2023-07-29T00:27:27;10.18;;;7.82;;
52964;SDS011;42923;53.220;6.528;2023-07-29T00:29:54;12.73;;;8.15;;
52964;SDS011;42923;53.220;6.528;2023-07-29T00:32:19;10.60;;;9.50;;
52964;SDS011;42923;53.220;6.528;2023-07-29T00:34:45;11.80;;;9.43;;
52964;SDS011;42923;53.220;6.528;2023-07-29T00:37:11;13.77;;;10.15;;
52964;SDS011;42923;53.220;6.528;2023-07-29T00:39:37;10.55;;;9.05;;
52964;SDS011;42923;53.220;6.528;2023-07-29T00:42:03;10.80;;;9.23;;
52964;SDS011;42923;53.220;6.528;2023-07-29T00:44:29;14.77;;;9.88;;
52964;SDS011;42923;53.220;6.528;2023-07-29T00:47:00;12.30;;;8.93;;
52964;SDS011;42923;53.220;6.528;2023-07-29T00:49:28;11.68;;;9.02;;
52964;SDS011;42923;53.220;6.528;2023-07-29T00:51:54;12.20;;;9.18;;
52964;SDS011;42923;53.220;6.528;2023-07-29T00:54:20;11.57;;;9.18;;
52964;SDS011;42923;53.220;6.528;2023-07-29T00:56:46;13.88;;;9.80;;
52964;SDS011;42923;53.220;6.528;2023-07-29T00:59:12;10.27;;;9.00;;
52964;SDS011;42923;53.220;6.528;2023-07-29T01:01:38;11.23;;;9.25;;
52964;SDS011;42923;53.220;6.528;2023-07-29T01:04:04;13.55;;;8.85;;
52964;SDS011;42923;53.220;6.528;2023-07-29T01:14:36;11.52;;;8.98;;
52964;SDS011;42923;53.220;6.528;2023-07-29T01:17:13;12.77;;;9.43;;
52964;SDS011;42923;53.220;6.528;2023-07-29T01:22:33;12.23;;;9.43;;
52964;SDS011;42923;53.220;6.528;2023-07-29T01:25:00;13.63;;;9.52;;
52964;SDS011;42923;53.220;6.528;2023-07-29T01:27:26;10.93;;;9.35;;
52964;SDS011;42923;53.220;6.528;2023-07-29T01:29:52;12.30;;;9.13;;
52964;SDS011;42923;53.220;6.528;2023-07-29T01:32:32;11.73;;;9.35;;
52964;SDS011;42923;53.220;6.528;2023-07-29T01:35:26;11.75;;;9.43;;
52964;SDS011;42923;53.220;6.528;2023-07-29T01:38:14;12.10;;;8.50;;
52964;SDS011;42923;53.220;6.528;2023-07-29T01:40:43;11.90;;;10.07;;
52964;SDS011;42923;53.220;6.528;2023-07-29T01:43:10;11.68;;;10.23;;
52964;SDS011;42923;53.220;6.528;2023-07-29T01:45:36;10.80;;;9.70;;
52964;SDS011;42923;53.220;6.528;2023-07-29T01:48:04;10.82;;;9.52;;
52964;SDS011;42923;53.220;6.528;2023-07-29T01:50:30;11.68;;;9.68;;
52964;SDS011;42923;53.220;6.528;2023-07-29T01:52:57;12.00;;;9.32;;
52964;SDS011;42923;53.220;6.528;2023-07-29T01:55:23;12.23;;;9.85;;
52964;SDS011;42923;53.220;6.528;2023-07-29T01:57:49;12.70;;;9.63;;
52964;SDS011;42923;53.220;6.528;2023-07-29T02:00:16;13.57;;;9.88;;
52964;SDS011;42923;53.220;6.528;2023-07-29T02:02:44;14.68;;;9.82;;
52964;SDS011;42923;53.220;6.528;2023-07-29T02:05:10;14.73;;;10.43;;
52964;SDS011;42923;53.220;6.528;2023-07-29T02:07:36;12.85;;;9.90;;
52964;SDS011;42923;53.220;6.528;2023-07-29T02:10:02;14.20;;;9.85;;
52964;SDS011;42923;53.220;6.528;2023-07-29T02:12:28;11.43;;;9.63;;
52964;SDS011;42923;53.220;6.528;2023-07-29T02:14:53;16.98;;;9.77;;
52964;SDS011;42923;53.220;6.528;2023-07-29T02:17:19;14.60;;;9.93;;
52964;SDS011;42923;53.220;6.528;2023-07-29T02:19:46;16.55;;;10.23;;
52964;SDS011;42923;53.220;6.528;2023-07-29T02:22:16;11.95;;;10.23;;
52964;SDS011;42923;53.220;6.528;2023-07-29T02:24:43;14.40;;;10.63;;
52964;SDS011;42923;53.220;6.528;2023-07-29T02:27:09;16.45;;;11.88;;
52964;SDS011;42923;53.220;6.528;2023-07-29T02:29:35;14.88;;;10.75;;
52964;SDS011;42923;53.220;6.528;2023-07-29T02:32:00;14.55;;;11.75;;
52964;SDS011;42923;53.220;6.528;2023-07-29T02:34:26;15.30;;;10.80;;
52964;SDS011;42923;53.220;6.528;2023-07-29T02:36:52;17.05;;;11.93;;
52964;SDS011;42923;53.220;6.528;2023-07-29T02:39:18;15.30;;;11.43;;
52964;SDS011;42923;53.220;6.528;2023-07-29T02:41:43;14.63;;;11.40;;
52964;SDS011;42923;53.220;6.528;2023-07-29T02:44:09;14.90;;;11.05;;
52964;SDS011;42923;53.220;6.528;2023-07-29T02:46:35;25.65;;;11.80;;
52964;SDS011;42923;53.220;6.528;2023-07-29T02:49:02;18.95;;;11.18;;
52964;SDS011;42923;53.220;6.528;2023-07-29T02:51:32;16.48;;;12.05;;
52964;SDS011;42923;53.220;6.528;2023-07-29T02:53:57;18.38;;;11.55;;
52964;SDS011;42923;53.220;6.528;2023-07-29T02:56:23;16.58;;;11.60;;
52964;SDS011;42923;53.220;6.528;2023-07-29T02:58:49;16.65;;;12.07;;
52964;SDS011;42923;53.220;6.528;2023-07-29T03:01:16;21.67;;;12.07;;
52964;SDS011;42923;53.220;6.528;2023-07-29T03:03:42;16.38;;;12.43;;
52964;SDS011;42923;53.220;6.528;2023-07-29T03:06:08;19.88;;;11.77;;
52964;SDS011;42923;53.220;6.528;2023-07-29T03:08:39;16.75;;;11.88;;
52964;SDS011;42923;53.220;6.528;2023-07-29T03:11:06;19.02;;;12.13;;
52964;SDS011;42923;53.220;6.528;2023-07-29T03:13:42;16.10;;;11.85;;
52964;SDS011;42923;53.220;6.528;2023-07-29T03:16:09;19.00;;;12.77;;
52964;SDS011;42923;53.220;6.528;2023-07-29T03:18:44;19.63;;;11.80;;
52964;SDS011;42923;53.220;6.528;2023-07-29T03:21:10;17.25;;;12.95;;
52964;SDS011;42923;53.220;6.528;2023-07-29T03:23:36;17.63;;;11.27;;
52964;SDS011;42923;53.220;6.528;2023-07-29T03:26:03;18.75;;;12.13;;
52964;SDS011;42923;53.220;6.528;2023-07-29T03:28:39;18.00;;;12.15;;
52964;SDS011;42923;53.220;6.528;2023-07-29T03:31:08;19.77;;;12.38;;
52964;SDS011;42923;53.220;6.528;2023-07-29T03:33:34;15.43;;;11.70;;
52964;SDS011;42923;53.220;6.528;2023-07-29T03:36:00;17.20;;;11.93;;
52964;SDS011;42923;53.220;6.528;2023-07-29T03:38:26;16.92;;;12.15;;
52964;SDS011;42923;53.220;6.528;2023-07-29T03:40:52;16.60;;;11.73;;
52964;SDS011;42923;53.220;6.528;2023-07-29T03:43:18;19.05;;;12.20;;
52964;SDS011;42923;53.220;6.528;2023-07-29T03:45:44;20.38;;;12.10;;
52964;SDS011;42923;53.220;6.528;2023-07-29T03:48:10;19.13;;;10.98;;
52964;SDS011;42923;53.220;6.528;2023-07-29T03:50:36;17.88;;;12.38;;
52964;SDS011;42923;53.220;6.528;2023-07-29T03:53:02;20.48;;;11.82;;
52964;SDS011;42923;53.220;6.528;2023-07-29T03:55:29;19.58;;;11.93;;
52964;SDS011;42923;53.220;6.528;2023-07-29T03:57:56;17.83;;;11.27;;
52964;SDS011;42923;53.220;6.528;2023-07-29T04:00:22;16.15;;;11.63;;
52964;SDS011;42923;53.220;6.528;2023-07-29T04:02:48;18.77;;;12.40;;
52964;SDS011;42923;53.220;6.528;2023-07-29T04:05:14;15.93;;;11.45;;
52964;SDS011;42923;53.220;6.528;2023-07-29T04:07:40;18.05;;;11.32;;
52964;SDS011;42923;53.220;6.528;2023-07-29T04:10:06;21.67;;;11.82;;
52964;SDS011;42923;53.220;6.528;2023-07-29T04:12:32;16.48;;;11.38;;
52964;SDS011;42923;53.220;6.528;2023-07-29T04:14:58;16.27;;;10.73;;
52964;SDS011;42923;53.220;6.528;2023-07-29T04:17:24;22.15;;;11.45;;
52964;SDS011;42923;53.220;6.528;2023-07-29T04:19:50;16.58;;;10.55;;
52964;SDS011;42923;53.220;6.528;2023-07-29T04:22:17;18.33;;;11.23;;
52964;SDS011;42923;53.220;6.528;2023-07-29T04:24:43;16.80;;;10.48;;
52964;SDS011;42923;53.220;6.528;2023-07-29T04:27:09;17.30;;;10.20;;
52964;SDS011;42923;53.220;6.528;2023-07-29T04:29:35;17.92;;;10.32;;
52964;SDS011;42923;53.220;6.528;2023-07-29T04:32:01;17.27;;;10.52;;
52964;SDS011;42923;53.220;6.528;2023-07-29T04:34:28;14.35;;;9.98;;
52964;SDS011;42923;53.220;6.528;2023-07-29T04:36:53;18.23;;;10.40;;
52964;SDS011;42923;53.220;6.528;2023-07-29T04:39:19;15.95;;;9.90;;
52964;SDS011;42923;53.220;6.528;2023-07-29T04:41:45;16.17;;;10.15;;
52964;SDS011;42923;53.220;6.528;2023-07-29T04:44:11;15.93;;;9.82;;
52964;SDS011;42923;53.220;6.528;2023-07-29T04:46:37;25.60;;;10.57;;
52964;SDS011;42923;53.220;6.528;2023-07-29T04:49:04;12.35;;;8.63;;
52964;SDS011;42923;53.220;6.528;2023-07-29T04:51:30;14.75;;;9.00;;
52964;SDS011;42923;53.220;6.528;2023-07-29T04:53:59;14.68;;;8.25;;
52964;SDS011;42923;53.220;6.528;2023-07-29T04:56:25;11.32;;;8.35;;
52964;SDS011;42923;53.220;6.528;2023-07-29T04:58:51;13.13;;;7.32;;
52964;SDS011;42923;53.220;6.528;2023-07-29T05:01:18;19.45;;;8.02;;
52964;SDS011;42923;53.220;6.528;2023-07-29T05:03:44;12.90;;;7.47;;
52964;SDS011;42923;53.220;6.528;2023-07-29T05:06:11;10.82;;;6.85;;
52964;SDS011;42923;53.220;6.528;2023-07-29T05:08:36;9.93;;;6.75;;
52964;SDS011;42923;53.220;6.528;2023-07-29T05:11:02;9.68;;;5.93;;
52964;SDS011;42923;53.220;6.528;2023-07-29T05:13:28;7.20;;;5.82;;
52964;SDS011;42923;53.220;6.528;2023-07-29T05:15:54;6.93;;;5.68;;
52964;SDS011;42923;53.220;6.528;2023-07-29T05:18:19;12.07;;;5.90;;
52964;SDS011;42923;53.220;6.528;2023-07-29T05:20:46;9.73;;;6.10;;
52964;SDS011;42923;53.220;6.528;2023-07-29T05:23:13;11.45;;;5.82;;
52964;SDS011;42923;53.220;6.528;2023-07-29T05:25:39;8.82;;;4.88;;
52964;SDS011;42923;53.220;6.528;2023-07-29T05:28:04;6.00;;;4.95;;
52964;SDS011;42923;53.220;6.528;2023-07-29T05:30:30;10.75;;;5.03;;
52964;SDS011;42923;53.220;6.528;2023-07-29T05:32:59;10.65;;;5.15;;
52964;SDS011;42923;53.220;6.528;2023-07-29T05:35:25;8.95;;;4.85;;
52964;SDS011;42923;53.220;6.528;2023-07-29T05:37:51;5.47;;;4.80;;
52964;SDS011;42923;53.220;6.528;2023-07-29T05:40:17;5.78;;;4.35;;
52964;SDS011;42923;53.220;6.528;2023-07-29T05:42:43;7.22;;;4.53;;
52964;SDS011;42923;53.220;6.528;2023-07-29T05:45:10;8.00;;;4.40;;
52964;SDS011;42923;53.220;6.528;2023-07-29T05:47:36;9.20;;;4.65;;
52964;SDS011;42923;53.220;6.528;2023-07-29T05:50:03;5.63;;;4.22;;
52964;SDS011;42923;53.220;6.528;2023-07-29T05:52:32;9.32;;;4.75;;
52964;SDS011;42923;53.220;6.528;2023-07-29T05:54:58;8.50;;;4.20;;
52964;SDS011;42923;53.220;6.528;2023-07-29T05:57:24;7.93;;;5.00;;
52964;SDS011;42923;53.220;6.528;2023-07-29T05:59:50;9.50;;;4.47;;
52964;SDS011;42923;53.220;6.528;2023-07-29T06:02:16;6.22;;;4.25;;
52964;SDS011;42923;53.220;6.528;2023-07-29T06:04:42;8.55;;;4.38;;
52964;SDS011;42923;53.220;6.528;2023-07-29T06:07:08;6.72;;;4.13;;
52964;SDS011;42923;53.220;6.528;2023-07-29T06:09:34;9.10;;;4.32;;
52964;SDS011;42923;53.220;6.528;2023-07-29T06:12:00;8.05;;;4.72;;
52964;SDS011;42923;53.220;6.528;2023-07-29T06:14:26;5.78;;;3.83;;
52964;SDS011;42923;53.220;6.528;2023-07-29T06:16:52;7.30;;;3.97;;
52964;SDS011;42923;53.220;6.528;2023-07-29T06:19:18;8.35;;;4.10;;
52964;SDS011;42923;53.220;6.528;2023-07-29T06:21:45;6.57;;;3.47;;
52964;SDS011;42923;53.220;6.528;2023-07-29T06:24:11;9.07;;;4.63;;
52964;SDS011;42923;53.220;6.528;2023-07-29T06:26:37;8.70;;;3.85;;
52964;SDS011;42923;53.220;6.528;2023-07-29T06:29:02;5.82;;;3.95;;
52964;SDS011;42923;53.220;6.528;2023-07-29T06:31:28;6.05;;;3.88;;
52964;SDS011;42923;53.220;6.528;2023-07-29T06:33:54;7.18;;;3.92;;
52964;SDS011;42923;53.220;6.528;2023-07-29T06:36:20;5.80;;;3.88;;
52964;SDS011;42923;53.220;6.528;2023-07-29T06:38:46;6.75;;;4.00;;
52964;SDS011;42923;53.220;6.528;2023-07-29T06:41:12;11.73;;;3.97;;
52964;SDS011;42923;53.220;6.528;2023-07-29T06:43:38;7.28;;;3.70;;
52964;SDS011;42923;53.220;6.528;2023-07-29T06:46:03;6.32;;;4.55;;
52964;SDS011;42923;53.220;6.528;2023-07-29T06:48:29;7.45;;;3.92;;
52964;SDS011;42923;53.220;6.528;2023-07-29T06:50:55;6.15;;;3.10;;
52964;SDS011;42923;53.220;6.528;2023-07-29T06:53:25;10.70;;;3.92;;
52964;SDS011;42923;53.220;6.528;2023-07-29T06:55:51;9.65;;;3.90;;
52964;SDS011;42923;53.220;6.528;2023-07-29T06:58:17;6.32;;;4.07;;
52964;SDS011;42923;53.220;6.528;2023-07-29T07:00:43;7.38;;;3.70;;
52964;SDS011;42923;53.220;6.528;2023-07-29T07:03:09;12.30;;;4.38;;
52964;SDS011;42923;53.220;6.528;2023-07-29T07:05:34;6.68;;;3.40;;
52964;SDS011;42923;53.220;6.528;2023-07-29T07:08:00;10.35;;;3.92;;
52964;SDS011;42923;53.220;6.528;2023-07-29T07:10:26;10.40;;;4.25;;
52964;SDS011;42923;53.220;6.528;2023-07-29T07:12:52;9.23;;;4.25;;
52964;SDS011;42923;53.220;6.528;2023-07-29T07:15:17;11.35;;;4.93;;
52964;SDS011;42923;53.220;6.528;2023-07-29T07:17:43;13.35;;;4.68;;
52964;SDS011;42923;53.220;6.528;2023-07-29T07:20:09;8.00;;;3.90;;
52964;SDS011;42923;53.220;6.528;2023-07-29T07:22:35;10.88;;;3.88;;
52964;SDS011;42923;53.220;6.528;2023-07-29T07:25:01;14.43;;;4.13;;
52964;SDS011;42923;53.220;6.528;2023-07-29T07:27:27;13.95;;;4.22;;
52964;SDS011;42923;53.220;6.528;2023-07-29T07:29:53;9.00;;;4.05;;
52964;SDS011;42923;53.220;6.528;2023-07-29T07:32:18;7.15;;;4.35;;
52964;SDS011;42923;53.220;6.528;2023-07-29T07:34:44;7.60;;;3.63;;
52964;SDS011;42923;53.220;6.528;2023-07-29T07:37:10;5.93;;;3.97;;
52964;SDS011;42923;53.220;6.528;2023-07-29T07:39:35;8.25;;;3.70;;
52964;SDS011;42923;53.220;6.528;2023-07-29T07:42:01;7.90;;;3.78;;
52964;SDS011;42923;53.220;6.528;2023-07-29T07:44:27;6.80;;;4.00;;
52964;SDS011;42923;53.220;6.528;2023-07-29T07:46:53;9.48;;;4.20;;
52964;SDS011;42923;53.220;6.528;2023-07-29T07:49:19;8.95;;;4.43;;
52964;SDS011;42923;53.220;6.528;2023-07-29T07:51:45;12.70;;;4.07;;
52964;SDS011;42923;53.220;6.528;2023-07-29T07:54:10;6.22;;;3.80;;
52964;SDS011;42923;53.220;6.528;2023-07-29T07:56:36;8.75;;;4.15;;
52964;SDS011;42923;53.220;6.528;2023-07-29T07:59:02;7.47;;;4.20;;
52964;SDS011;42923;53.220;6.528;2023-07-29T08:01:28;9.43;;;4.18;;
52964;SDS011;42923;53.220;6.528;2023-07-29T08:04:02;11.73;;;4.90;;
52964;SDS011;42923;53.220;6.528;2023-07-29T08:06:29;8.10;;;4.00;;
52964;SDS011;42923;53.220;6.528;2023-07-29T08:08:55;8.60;;;4.20;;
52964;SDS011;42923;53.220;6.528;2023-07-29T08:11:21;6.38;;;3.92;;
52964;SDS011;42923;53.220;6.528;2023-07-29T08:13:47;4.78;;;3.90;;
52964;SDS011;42923;53.220;6.528;2023-07-29T08:16:12;6.10;;;3.97;;
52964;SDS011;42923;53.220;6.528;2023-07-29T08:18:39;5.65;;;3.42;;
52964;SDS011;42923;53.220;6.528;2023-07-29T08:21:04;8.20;;;3.45;;
52964;SDS011;42923;53.220;6.528;2023-07-29T08:23:31;6.78;;;3.08;;
52964;SDS011;42923;53.220;6.528;2023-07-29T08:26:00;10.80;;;3.88;;
52964;SDS011;42923;53.220;6.528;2023-07-29T08:28:28;14.75;;;5.00;;
52964;SDS011;42923;53.220;6.528;2023-07-29T08:30:54;8.20;;;2.92;;
52964;SDS011;42923;53.220;6.528;2023-07-29T08:33:20;6.88;;;3.38;;
52964;SDS011;42923;53.220;6.528;2023-07-29T08:35:46;6.78;;;3.35;;
52964;SDS011;42923;53.220;6.528;2023-07-29T08:38:11;6.18;;;2.80;;
52964;SDS011;42923;53.220;6.528;2023-07-29T08:40:38;6.57;;;3.13;;
52964;SDS011;42923;53.220;6.528;2023-07-29T08:43:10;5.53;;;2.83;;
52964;SDS011;42923;53.220;6.528;2023-07-29T08:45:39;6.72;;;2.60;;
52964;SDS011;42923;53.220;6.528;2023-07-29T08:48:07;5.82;;;3.08;;
52964;SDS011;42923;53.220;6.528;2023-07-29T08:50:35;9.35;;;3.10;;
52964;SDS011;42923;53.220;6.528;2023-07-29T08:53:05;6.65;;;2.75;;
52964;SDS011;42923;53.220;6.528;2023-07-29T08:55:31;5.03;;;2.25;;
52964;SDS011;42923;53.220;6.528;2023-07-29T08:57:57;4.38;;;2.03;;
52964;SDS011;42923;53.220;6.528;2023-07-29T09:00:25;7.88;;;2.35;;
52964;SDS011;42923;53.220;6.528;2023-07-29T09:02:51;5.13;;;2.17;;
52964;SDS011;42923;53.220;6.528;2023-07-29T09:05:17;7.28;;;2.60;;
52964;SDS011;42923;53.220;6.528;2023-07-29T09:07:43;5.80;;;2.65;;
52964;SDS011;42923;53.220;6.528;2023-07-29T09:10:11;4.55;;;2.22;;
52964;SDS011;42923;53.220;6.528;2023-07-29T09:12:39;4.55;;;2.22;;
52964;SDS011;42923;53.220;6.528;2023-07-29T09:15:05;4.47;;;2.05;;
52964;SDS011;42923;53.220;6.528;2023-07-29T09:17:32;4.38;;;2.30;;
52964;SDS011;42923;53.220;6.528;2023-07-29T09:19:59;6.38;;;2.20;;
52964;SDS011;42923;53.220;6.528;2023-07-29T09:22:25;5.38;;;2.30;;
52964;SDS011;42923;53.220;6.528;2023-07-29T09:24:52;2.92;;;2.10;;
52964;SDS011;42923;53.220;6.528;2023-07-29T09:27:25;5.05;;;2.17;;
52964;SDS011;42923;53.220;6.528;2023-07-29T09:29:52;5.07;;;2.30;;
52964;SDS011;42923;53.220;6.528;2023-07-29T09:32:19;6.15;;;2.47;;
52964;SDS011;42923;53.220;6.528;2023-07-29T09:34:45;3.88;;;2.00;;
52964;SDS011;42923;53.220;6.528;2023-07-29T09:37:18;3.78;;;1.83;;
52964;SDS011;42923;53.220;6.528;2023-07-29T09:39:49;4.57;;;1.75;;
52964;SDS011;42923;53.220;6.528;2023-07-29T09:42:19;6.10;;;2.10;;
52964;SDS011;42923;53.220;6.528;2023-07-29T09:44:47;8.52;;;2.13;;
52964;SDS011;42923;53.220;6.528;2023-07-29T09:47:22;4.78;;;1.80;;
52964;SDS011;42923;53.220;6.528;2023-07-29T09:49:49;3.08;;;1.63;;
52964;SDS011;42923;53.220;6.528;2023-07-29T09:52:16;4.72;;;1.80;;
52964;SDS011;42923;53.220;6.528;2023-07-29T09:54:43;3.50;;;1.63;;
52964;SDS011;42923;53.220;6.528;2023-07-29T09:57:16;4.07;;;1.65;;
52964;SDS011;42923;53.220;6.528;2023-07-29T09:59:52;4.10;;;1.67;;
52964;SDS011;42923;53.220;6.528;2023-07-29T10:02:20;4.30;;;1.50;;
52964;SDS011;42923;53.220;6.528;2023-07-29T10:04:46;4.97;;;1.75;;
52964;SDS011;42923;53.220;6.528;2023-07-29T10:07:13;3.13;;;1.70;;
52964;SDS011;42923;53.220;6.528;2023-07-29T10:09:40;4.03;;;1.70;;
52964;SDS011;42923;53.220;6.528;2023-07-29T10:12:09;4.32;;;2.25;;
52964;SDS011;42923;53.220;6.528;2023-07-29T10:14:37;5.80;;;2.08;;
52964;SDS011;42923;53.220;6.528;2023-07-29T10:17:04;2.72;;;1.52;;
52964;SDS011;42923;53.220;6.528;2023-07-29T10:19:31;5.63;;;1.85;;
52964;SDS011;42923;53.220;6.528;2023-07-29T10:21:59;3.15;;;1.52;;
52964;SDS011;42923;53.220;6.528;2023-07-29T10:24:31;4.25;;;1.65;;
52964;SDS011;42923;53.220;6.528;2023-07-29T10:26:59;7.50;;;2.90;;
52964;SDS011;42923;53.220;6.528;2023-07-29T10:29:32;2.45;;;1.50;;
52964;SDS011;42923;53.220;6.528;2023-07-29T10:32:03;3.22;;;1.42;;
52964;SDS011;42923;53.220;6.528;2023-07-29T10:34:30;4.25;;;1.88;;
52964;SDS011;42923;53.220;6.528;2023-07-29T10:36:58;3.97;;;1.60;;
52964;SDS011;42923;53.220;6.528;2023-07-29T10:39:24;5.82;;;2.05;;
52964;SDS011;42923;53.220;6.528;2023-07-29T10:42:01;4.65;;;1.80;;
52964;SDS011;42923;53.220;6.528;2023-07-29T10:47:11;4.03;;;1.98;;
52964;SDS011;42923;53.220;6.528;2023-07-29T10:50:01;5.82;;;2.28;;
52964;SDS011;42923;53.220;6.528;2023-07-29T10:52:28;4.78;;;2.25;;
52964;SDS011;42923;53.220;6.528;2023-07-29T10:54:56;7.15;;;2.85;;
52964;SDS011;42923;53.220;6.528;2023-07-29T10:57:33;1.48;;;1.27;;
52964;SDS011;42923;53.220;6.528;2023-07-29T11:00:01;5.70;;;1.58;;
52964;SDS011;42923;53.220;6.528;2023-07-29T11:02:32;4.00;;;2.13;;
52964;SDS011;42923;53.220;6.528;2023-07-29T11:05:05;3.15;;;1.42;;
52964;SDS011;42923;53.220;6.528;2023-07-29T11:07:44;5.13;;;1.85;;
52964;SDS011;42923;53.220;6.528;2023-07-29T11:10:12;3.17;;;1.77;;
52964;SDS011;42923;53.220;6.528;2023-07-29T11:12:51;3.08;;;1.95;;
52964;SDS011;42923;53.220;6.528;2023-07-29T11:17:58;8.30;;;2.53;;
52964;SDS011;42923;53.220;6.528;2023-07-29T11:20:28;10.95;;;2.50;;
52964;SDS011;42923;53.220;6.528;2023-07-29T11:22:56;2.15;;;1.35;;
52964;SDS011;42923;53.220;6.528;2023-07-29T11:25:24;2.45;;;1.92;;
52964;SDS011;42923;53.220;6.528;2023-07-29T11:27:51;3.92;;;1.75;;
52964;SDS011;42923;53.220;6.528;2023-07-29T11:30:18;5.15;;;1.92;;
52964;SDS011;42923;53.220;6.528;2023-07-29T11:32:45;3.78;;;1.80;;
52964;SDS011;42923;53.220;6.528;2023-07-29T11:35:12;2.90;;;2.13;;
52964;SDS011;42923;53.220;6.528;2023-07-29T11:37:40;2.97;;;2.30;;
52964;SDS011;42923;53.220;6.528;2023-07-29T11:40:07;5.70;;;2.22;;
52964;SDS011;42923;53.220;6.528;2023-07-29T11:42:37;5.88;;;2.47;;
52964;SDS011;42923;53.220;6.528;2023-07-29T11:45:03;3.28;;;2.38;;
52964;SDS011;42923;53.220;6.528;2023-07-29T11:47:32;4.55;;;2.28;;
52964;SDS011;42923;53.220;6.528;2023-07-29T11:50:02;5.78;;;2.10;;
52964;SDS011;42923;53.220;6.528;2023-07-29T11:52:30;7.40;;;2.53;;
52964;SDS011;42923;53.220;6.528;2023-07-29T11:55:01;5.38;;;2.13;;
52964;SDS011;42923;53.220;6.528;2023-07-29T11:57:28;5.07;;;2.40;;
52964;SDS011;42923;53.220;6.528;2023-07-29T11:59:55;14.57;;;2.35;;
52964;SDS011;42923;53.220;6.528;2023-07-29T12:02:21;3.03;;;2.10;;
52964;SDS011;42923;53.220;6.528;2023-07-29T12:04:48;5.75;;;2.58;;
52964;SDS011;42923;53.220;6.528;2023-07-29T12:07:16;8.10;;;2.75;;
52964;SDS011;42923;53.220;6.528;2023-07-29T12:09:43;4.35;;;2.05;;
52964;SDS011;42923;53.220;6.528;2023-07-29T12:12:09;3.00;;;2.08;;
52964;SDS011;42923;53.220;6.528;2023-07-29T12:14:35;5.68;;;2.30;;
52964;SDS011;42923;53.220;6.528;2023-07-29T12:17:01;3.90;;;2.38;;
52964;SDS011;42923;53.220;6.528;2023-07-29T12:19:35;4.07;;;2.17;;
52964;SDS011;42923;53.220;6.528;2023-07-29T12:22:02;5.78;;;2.22;;
52964;SDS011;42923;53.220;6.528;2023-07-29T12:24:29;4.35;;;2.10;;
52964;SDS011;42923;53.220;6.528;2023-07-29T12:26:56;4.82;;;2.10;;
52964;SDS011;42923;53.220;6.528;2023-07-29T12:29:22;4.85;;;1.98;;
52964;SDS011;42923;53.220;6.528;2023-07-29T12:31:48;4.55;;;1.65;;
52964;SDS011;42923;53.220;6.528;2023-07-29T12:34:21;4.30;;;2.20;;
52964;SDS011;42923;53.220;6.528;2023-07-29T12:36:48;4.47;;;1.90;;
52964;SDS011;42923;53.220;6.528;2023-07-29T12:39:15;4.47;;;2.00;;
52964;SDS011;42923;53.220;6.528;2023-07-29T12:41:45;7.32;;;2.90;;
52964;SDS011;42923;53.220;6.528;2023-07-29T12:44:11;3.65;;;1.85;;
52964;SDS011;42923;53.220;6.528;2023-07-29T12:46:37;5.88;;;1.92;;
52964;SDS011;42923;53.220;6.528;2023-07-29T12:49:02;3.90;;;2.05;;
52964;SDS011;42923;53.220;6.528;2023-07-29T12:51:28;6.15;;;1.85;;
52964;SDS011;42923;53.220;6.528;2023-07-29T12:53:54;4.45;;;2.15;;
52964;SDS011;42923;53.220;6.528;2023-07-29T12:56:20;4.07;;;1.95;;
52964;SDS011;42923;53.220;6.528;2023-07-29T12:58:45;3.85;;;1.80;;
52964;SDS011;42923;53.220;6.528;2023-07-29T13:01:11;3.95;;;1.80;;
52964;SDS011;42923;53.220;6.528;2023-07-29T13:03:43;3.58;;;1.80;;
52964;SDS011;42923;53.220;6.528;2023-07-29T13:06:15;2.78;;;1.80;;
52964;SDS011;42923;53.220;6.528;2023-07-29T13:08:41;4.07;;;1.75;;
52964;SDS011;42923;53.220;6.528;2023-07-29T13:11:08;7.00;;;1.85;;
52964;SDS011;42923;53.220;6.528;2023-07-29T13:13:33;2.63;;;1.75;;
52964;SDS011;42923;53.220;6.528;2023-07-29T13:15:59;4.05;;;1.80;;
52964;SDS011;42923;53.220;6.528;2023-07-29T13:18:26;3.85;;;2.00;;
52964;SDS011;42923;53.220;6.528;2023-07-29T13:20:52;2.47;;;1.80;;
52964;SDS011;42923;53.220;6.528;2023-07-29T13:23:18;5.80;;;1.90;;
52964;SDS011;42923;53.220;6.528;2023-07-29T13:25:44;7.78;;;2.00;;
52964;SDS011;42923;53.220;6.528;2023-07-29T13:28:10;3.67;;;1.70;;
52964;SDS011;42923;53.220;6.528;2023-07-29T13:30:38;7.75;;;2.10;;
52964;SDS011;42923;53.220;6.528;2023-07-29T13:33:04;2.60;;;2.00;;
52964;SDS011;42923;53.220;6.528;2023-07-29T13:35:31;3.92;;;1.90;;
52964;SDS011;42923;53.220;6.528;2023-07-29T13:37:57;3.72;;;1.80;;
52964;SDS011;42923;53.220;6.528;2023-07-29T13:40:23;4.82;;;1.65;;
52964;SDS011;42923;53.220;6.528;2023-07-29T13:42:48;5.53;;;1.77;;
52964;SDS011;42923;53.220;6.528;2023-07-29T13:45:14;3.25;;;1.95;;
52964;SDS011;42923;53.220;6.528;2023-07-29T13:47:40;2.40;;;1.42;;
52964;SDS011;42923;53.220;6.528;2023-07-29T13:50:06;3.67;;;2.10;;
52964;SDS011;42923;53.220;6.528;2023-07-29T13:52:33;6.88;;;2.20;;
52964;SDS011;42923;53.220;6.528;2023-07-29T13:54:59;5.60;;;2.58;;
52964;SDS011;42923;53.220;6.528;2023-07-29T13:57:25;2.80;;;2.13;;
52964;SDS011;42923;53.220;6.528;2023-07-29T13:59:50;3.75;;;2.03;;
52964;SDS011;42923;53.220;6.528;2023-07-29T14:02:16;6.95;;;2.40;;
52964;SDS011;42923;53.220;6.528;2023-07-29T14:04:42;5.20;;;2.25;;
52964;SDS011;42923;53.220;6.528;2023-07-29T14:07:09;5.95;;;2.15;;
52964;SDS011;42923;53.220;6.528;2023-07-29T14:09:34;4.22;;;2.53;;
52964;SDS011;42923;53.220;6.528;2023-07-29T14:12:00;5.40;;;2.17;;
52964;SDS011;42923;53.220;6.528;2023-07-29T14:14:26;4.68;;;2.22;;
52964;SDS011;42923;53.220;6.528;2023-07-29T14:16:51;6.97;;;2.72;;
52964;SDS011;42923;53.220;6.528;2023-07-29T14:19:17;7.78;;;2.08;;
52964;SDS011;42923;53.220;6.528;2023-07-29T14:21:43;4.13;;;2.15;;
52964;SDS011;42923;53.220;6.528;2023-07-29T14:24:09;4.40;;;1.98;;
52964;SDS011;42923;53.220;6.528;2023-07-29T14:26:34;3.88;;;2.00;;
52964;SDS011;42923;53.220;6.528;2023-07-29T14:29:00;4.47;;;2.55;;
52964;SDS011;42923;53.220;6.528;2023-07-29T14:31:26;4.63;;;2.58;;
52964;SDS011;42923;53.220;6.528;2023-07-29T14:33:51;4.65;;;2.85;;
52964;SDS011;42923;53.220;6.528;2023-07-29T14:36:17;6.63;;;2.38;;
52964;SDS011;42923;53.220;6.528;2023-07-29T14:38:43;5.40;;;2.45;;
52964;SDS011;42923;53.220;6.528;2023-07-29T14:41:09;5.07;;;2.40;;
52964;SDS011;42923;53.220;6.528;2023-07-29T14:43:35;8.07;;;2.50;;
52964;SDS011;42923;53.220;6.528;2023-07-29T14:46:01;9.60;;;2.65;;
52964;SDS011;42923;53.220;6.528;2023-07-29T14:48:27;3.75;;;2.22;;
52964;SDS011;42923;53.220;6.528;2023-07-29T14:50:54;5.07;;;2.28;;
52964;SDS011;42923;53.220;6.528;2023-07-29T14:53:19;6.00;;;2.20;;
52964;SDS011;42923;53.220;6.528;2023-07-29T14:55:45;3.88;;;1.83;;